sensor_id;sensor_type;location;lat;lon;timestamp;pressure;altitude;pressure_sealevel;temperature;humidity
75640;BME280;64233;51.486;6.332;2023-06-04T00:01:32;101793.88;;;11.65;100.00
75640;BME280;64233;51.486;6.332;2023-06-04T00:03:57;101801.94;;;11.53;100.00
75640;BME280;64233;51.486;6.332;2023-06-04T00:06:23;101799.38;;;11.59;100.00
75640;BME280;64233;51.486;6.332;2023-06-04T00:08:48;101796.53;;;11.53;100.00
75640;BME280;64233;51.486;6.332;2023-06-04T00:11:13;101796.31;;;11.55;100.00
75640;BME280;64233;51.486;6.332;2023-06-04T00:13:39;101792.00;;;11.66;100.00
75640;BME280;64233;51.486;6.332;2023-06-04T00:16:04;101794.56;;;11.49;100.00
75640;BME280;64233;51.486;6.332;2023-06-04T00:18:29;101792.69;;;11.37;100.00
75640;BME280;64233;51.486;6.332;2023-06-04T00:20:55;101800.50;;;11.39;100.00
75640;BME280;64233;51.486;6.332;2023-06-04T00:23:20;101796.88;;;11.33;100.00
75640;BME280;64233;51.486;6.332;2023-06-04T00:25:45;101796.63;;;11.35;100.00
75640;BME280;64233;51.486;6.332;2023-06-04T00:28:10;101801.41;;;11.21;100.00
75640;BME280;64233;51.486;6.332;2023-06-04T00:30:36;101797.91;;;11.20;100.00
75640;BME280;64233;51.486;6.332;2023-06-04T00:33:01;101791.81;;;11.13;100.00
75640;BME280;64233;51.486;6.332;2023-06-04T00:35:26;101791.56;;;11.15;100.00
75640;BME280;64233;51.486;6.332;2023-06-04T00:37:52;101790.53;;;11.16;100.00
75640;BME280;64233;51.486;6.332;2023-06-04T00:40:17;101790.59;;;10.97;100.00
75640;BME280;64233;51.486;6.332;2023-06-04T00:42:44;101789.19;;;10.95;100.00
75640;BME280;64233;51.486;6.332;2023-06-04T00:45:10;101787.63;;;10.87;100.00
75640;BME280;64233;51.486;6.332;2023-06-04T00:47:36;101793.13;;;10.92;100.00
75640;BME280;64233;51.486;6.332;2023-06-04T00:50:01;101791.16;;;10.88;100.00
75640;BME280;64233;51.486;6.332;2023-06-04T00:52:27;101793.09;;;10.80;100.00
75640;BME280;64233;51.486;6.332;2023-06-04T00:54:52;101786.44;;;10.83;100.00
75640;BME280;64233;51.486;6.332;2023-06-04T00:57:22;101786.41;;;10.71;100.00
75640;BME280;64233;51.486;6.332;2023-06-04T00:59:48;101790.25;;;10.75;100.00
75640;BME280;64233;51.486;6.332;2023-06-04T01:02:16;101790.19;;;10.82;100.00
75640;BME280;64233;51.486;6.332;2023-06-04T01:05:08;101793.75;;;10.76;100.00
75640;BME280;64233;51.486;6.332;2023-06-04T01:07:37;101790.00;;;10.65;100.00
75640;BME280;64233;51.486;6.332;2023-06-04T01:10:03;101793.03;;;10.68;100.00
75640;BME280;64233;51.486;6.332;2023-06-04T01:12:28;101788.72;;;10.67;100.00
75640;BME280;64233;51.486;6.332;2023-06-04T01:14:53;101785.34;;;10.72;100.00
75640;BME280;64233;51.486;6.332;2023-06-04T01:17:23;101790.31;;;10.57;100.00
75640;BME280;64233;51.486;6.332;2023-06-04T01:20:05;101797.38;;;10.51;100.00
75640;BME280;64233;51.486;6.332;2023-06-04T01:25:32;101787.88;;;10.37;100.00
75640;BME280;64233;51.486;6.332;2023-06-04T01:27:58;101785.59;;;10.33;100.00
75640;BME280;64233;51.486;6.332;2023-06-04T01:30:28;101786.03;;;10.30;100.00
75640;BME280;64233;51.486;6.332;2023-06-04T01:32:55;101799.25;;;10.32;100.00
75640;BME280;64233;51.486;6.332;2023-06-04T01:35:21;101794.50;;;10.34;100.00
75640;BME280;64233;51.486;6.332;2023-06-04T01:37:46;101799.31;;;10.25;100.00
75640;BME280;64233;51.486;6.332;2023-06-04T01:40:12;101797.31;;;10.21;100.00
75640;BME280;64233;51.486;6.332;2023-06-04T01:42:38;101797.09;;;10.22;100.00
75640;BME280;64233;51.486;6.332;2023-06-04T01:45:04;101797.16;;;10.15;100.00
75640;BME280;64233;51.486;6.332;2023-06-04T01:47:29;101793.25;;;10.11;100.00
75640;BME280;64233;51.486;6.332;2023-06-04T01:49:55;101794.38;;;10.04;100.00
75640;BME280;64233;51.486;6.332;2023-06-04T01:52:20;101786.41;;;9.97;100.00
75640;BME280;64233;51.486;6.332;2023-06-04T01:54:46;101789.13;;;9.90;100.00
75640;BME280;64233;51.486;6.332;2023-06-04T01:57:13;101787.56;;;9.82;100.00
75640;BME280;64233;51.486;6.332;2023-06-04T01:59:39;101795.28;;;9.72;100.00
75640;BME280;64233;51.486;6.332;2023-06-04T02:02:04;101795.19;;;9.60;100.00
75640;BME280;64233;51.486;6.332;2023-06-04T02:04:30;101806.34;;;9.57;100.00
75640;BME280;64233;51.486;6.332;2023-06-04T02:06:55;101798.53;;;9.56;100.00
75640;BME280;64233;51.486;6.332;2023-06-04T02:09:21;101797.66;;;9.62;100.00
75640;BME280;64233;51.486;6.332;2023-06-04T02:11:47;101800.94;;;9.64;100.00
75640;BME280;64233;51.486;6.332;2023-06-04T02:14:12;101801.53;;;9.66;100.00
75640;BME280;64233;51.486;6.332;2023-06-04T02:16:37;101801.97;;;9.63;100.00
75640;BME280;64233;51.486;6.332;2023-06-04T02:19:02;101811.06;;;9.62;100.00
75640;BME280;64233;51.486;6.332;2023-06-04T02:21:28;101809.63;;;9.59;100.00
75640;BME280;64233;51.486;6.332;2023-06-04T02:23:53;101808.06;;;9.52;100.00
75640;BME280;64233;51.486;6.332;2023-06-04T02:26:19;101809.97;;;9.44;100.00
75640;BME280;64233;51.486;6.332;2023-06-04T02:28:44;101800.31;;;9.37;100.00
75640;BME280;64233;51.486;6.332;2023-06-04T02:31:09;101804.31;;;9.27;100.00
75640;BME280;64233;51.486;6.332;2023-06-04T02:33:34;101804.91;;;9.29;100.00
75640;BME280;64233;51.486;6.332;2023-06-04T02:36:00;101806.09;;;9.34;100.00
75640;BME280;64233;51.486;6.332;2023-06-04T02:38:26;101797.69;;;9.30;100.00
75640;BME280;64233;51.486;6.332;2023-06-04T02:40:51;101804.81;;;9.43;100.00
75640;BME280;64233;51.486;6.332;2023-06-04T02:43:16;101808.50;;;9.48;100.00
75640;BME280;64233;51.486;6.332;2023-06-04T02:45:41;101810.94;;;9.50;100.00
75640;BME280;64233;51.486;6.332;2023-06-04T02:48:07;101811.59;;;9.45;100.00
75640;BME280;64233;51.486;6.332;2023-06-04T02:50:32;101813.28;;;9.40;100.00
75640;BME280;64233;51.486;6.332;2023-06-04T02:52:58;101812.69;;;9.38;100.00
75640;BME280;64233;51.486;6.332;2023-06-04T02:55:23;101818.47;;;9.35;100.00
75640;BME280;64233;51.486;6.332;2023-06-04T02:57:48;101813.78;;;9.30;100.00
75640;BME280;64233;51.486;6.332;2023-06-04T03:00:14;101808.06;;;9.20;100.00
75640;BME280;64233;51.486;6.332;2023-06-04T03:02:41;101807.94;;;9.08;100.00
75640;BME280;64233;51.486;6.332;2023-06-04T03:05:09;101812.72;;;8.99;100.00
75640;BME280;64233;51.486;6.332;2023-06-04T03:07:36;101809.69;;;8.89;100.00
75640;BME280;64233;51.486;6.332;2023-06-04T03:10:01;101803.53;;;8.82;100.00
75640;BME280;64233;51.486;6.332;2023-06-04T03:12:26;101806.63;;;8.78;100.00
75640;BME280;64233;51.486;6.332;2023-06-04T03:14:52;101809.97;;;8.74;100.00
75640;BME280;64233;51.486;6.332;2023-06-04T03:17:17;101804.03;;;8.65;100.00
75640;BME280;64233;51.486;6.332;2023-06-04T03:19:42;101807.97;;;8.56;100.00
75640;BME280;64233;51.486;6.332;2023-06-04T03:22:08;101810.06;;;8.54;100.00
75640;BME280;64233;51.486;6.332;2023-06-04T03:24:36;101804.72;;;8.47;100.00
75640;BME280;64233;51.486;6.332;2023-06-04T03:27:03;101805.13;;;8.37;100.00
75640;BME280;64233;51.486;6.332;2023-06-04T03:29:29;101805.13;;;8.37;100.00
75640;BME280;64233;51.486;6.332;2023-06-04T03:31:55;101811.72;;;8.35;100.00
75640;BME280;64233;51.486;6.332;2023-06-04T03:34:21;101807.44;;;8.27;100.00
75640;BME280;64233;51.486;6.332;2023-06-04T03:36:50;101810.97;;;8.14;100.00
75640;BME280;64233;51.486;6.332;2023-06-04T03:39:15;101813.84;;;8.13;100.00
75640;BME280;64233;51.486;6.332;2023-06-04T03:41:41;101814.44;;;8.21;100.00
75640;BME280;64233;51.486;6.332;2023-06-04T03:44:06;101811.97;;;8.26;100.00
75640;BME280;64233;51.486;6.332;2023-06-04T03:46:31;101812.72;;;8.40;100.00
75640;BME280;64233;51.486;6.332;2023-06-04T03:48:58;101821.75;;;8.66;100.00
75640;BME280;64233;51.486;6.332;2023-06-04T03:51:23;101812.72;;;8.99;100.00
75640;BME280;64233;51.486;6.332;2023-06-04T03:53:50;101812.50;;;9.33;100.00
75640;BME280;64233;51.486;6.332;2023-06-04T03:56:15;101815.47;;;9.50;100.00
75640;BME280;64233;51.486;6.332;2023-06-04T03:58:40;101812.03;;;9.68;100.00
75640;BME280;64233;51.486;6.332;2023-06-04T04:01:06;101811.84;;;9.88;100.00
75640;BME280;64233;51.486;6.332;2023-06-04T04:03:33;101812.63;;;10.13;100.00
75640;BME280;64233;51.486;6.332;2023-06-04T04:06:00;101808.72;;;10.53;100.00
75640;BME280;64233;51.486;6.332;2023-06-04T04:08:25;101811.38;;;10.90;100.00
75640;BME280;64233;51.486;6.332;2023-06-04T04:10:51;101815.94;;;11.44;100.00
75640;BME280;64233;51.486;6.332;2023-06-04T04:13:17;101811.88;;;11.65;100.00
75640;BME280;64233;51.486;6.332;2023-06-04T04:15:42;101807.59;;;12.11;100.00
75640;BME280;64233;51.486;6.332;2023-06-04T04:18:07;101813.75;;;11.52;100.00
75640;BME280;64233;51.486;6.332;2023-06-04T04:20:36;101808.38;;;11.52;100.00
75640;BME280;64233;51.486;6.332;2023-06-04T04:23:01;101821.22;;;11.50;100.00
75640;BME280;64233;51.486;6.332;2023-06-04T04:25:26;101812.34;;;11.50;100.00
75640;BME280;64233;51.486;6.332;2023-06-04T04:27:52;101821.34;;;11.79;100.00
75640;BME280;64233;51.486;6.332;2023-06-04T04:30:17;101818.66;;;11.67;100.00
75640;BME280;64233;51.486;6.332;2023-06-04T04:32:43;101800.41;;;11.93;100.00
75640;BME280;64233;51.486;6.332;2023-06-04T04:35:14;101815.06;;;11.19;100.00
75640;BME280;64233;51.486;6.332;2023-06-04T04:37:43;101816.06;;;11.37;100.00
75640;BME280;64233;51.486;6.332;2023-06-04T04:40:10;101815.13;;;11.31;100.00
75640;BME280;64233;51.486;6.332;2023-06-04T04:42:35;101813.69;;;11.29;100.00
75640;BME280;64233;51.486;6.332;2023-06-04T04:45:01;101820.56;;;11.25;100.00
75640;BME280;64233;51.486;6.332;2023-06-04T04:47:26;101809.44;;;11.09;100.00
75640;BME280;64233;51.486;6.332;2023-06-04T04:49:52;101811.75;;;10.75;100.00
75640;BME280;64233;51.486;6.332;2023-06-04T04:52:17;101825.09;;;10.82;100.00
75640;BME280;64233;51.486;6.332;2023-06-04T04:54:42;101821.91;;;10.73;100.00
75640;BME280;64233;51.486;6.332;2023-06-04T04:57:08;101820.78;;;10.62;100.00
75640;BME280;64233;51.486;6.332;2023-06-04T04:59:33;101821.09;;;10.54;100.00
75640;BME280;64233;51.486;6.332;2023-06-04T05:01:58;101823.78;;;10.54;100.00
75640;BME280;64233;51.486;6.332;2023-06-04T05:04:23;101828.13;;;10.55;100.00
75640;BME280;64233;51.486;6.332;2023-06-04T05:06:49;101826.91;;;10.51;100.00
75640;BME280;64233;51.486;6.332;2023-06-04T05:09:14;101816.91;;;10.58;100.00
75640;BME280;64233;51.486;6.332;2023-06-04T05:11:41;101822.75;;;10.55;100.00
75640;BME280;64233;51.486;6.332;2023-06-04T05:14:06;101824.97;;;10.58;100.00
75640;BME280;64233;51.486;6.332;2023-06-04T05:16:32;101824.16;;;10.58;100.00
75640;BME280;64233;51.486;6.332;2023-06-04T05:19:00;101830.31;;;10.77;100.00
75640;BME280;64233;51.486;6.332;2023-06-04T05:21:27;101829.31;;;10.90;100.00
75640;BME280;64233;51.486;6.332;2023-06-04T05:23:54;101832.63;;;10.92;100.00
75640;BME280;64233;51.486;6.332;2023-06-04T05:26:19;101830.28;;;10.95;100.00
75640;BME280;64233;51.486;6.332;2023-06-04T05:28:48;101835.72;;;11.07;100.00
75640;BME280;64233;51.486;6.332;2023-06-04T05:31:13;101837.63;;;11.18;100.00
75640;BME280;64233;51.486;6.332;2023-06-04T05:33:41;101830.28;;;11.26;100.00
75640;BME280;64233;51.486;6.332;2023-06-04T05:36:06;101837.81;;;11.47;100.00
75640;BME280;64233;51.486;6.332;2023-06-04T05:38:32;101833.38;;;11.41;100.00
75640;BME280;64233;51.486;6.332;2023-06-04T05:40:58;101836.41;;;11.57;100.00
75640;BME280;64233;51.486;6.332;2023-06-04T05:43:23;101832.13;;;11.67;100.00
75640;BME280;64233;51.486;6.332;2023-06-04T05:45:49;101825.59;;;11.75;100.00
75640;BME280;64233;51.486;6.332;2023-06-04T05:48:15;101831.19;;;11.74;100.00
75640;BME280;64233;51.486;6.332;2023-06-04T05:50:41;101826.16;;;11.89;100.00
75640;BME280;64233;51.486;6.332;2023-06-04T05:53:06;101819.19;;;12.00;100.00
75640;BME280;64233;51.486;6.332;2023-06-04T05:55:31;101824.31;;;12.13;100.00
75640;BME280;64233;51.486;6.332;2023-06-04T05:57:57;101830.50;;;12.26;100.00
75640;BME280;64233;51.486;6.332;2023-06-04T06:00:23;101823.72;;;12.35;100.00
75640;BME280;64233;51.486;6.332;2023-06-04T06:02:52;101826.47;;;12.52;100.00
75640;BME280;64233;51.486;6.332;2023-06-04T06:05:18;101824.56;;;12.64;100.00
75640;BME280;64233;51.486;6.332;2023-06-04T06:07:45;101833.59;;;12.58;100.00
75640;BME280;64233;51.486;6.332;2023-06-04T06:10:10;101825.44;;;12.82;100.00
75640;BME280;64233;51.486;6.332;2023-06-04T06:12:36;101833.19;;;12.78;100.00
75640;BME280;64233;51.486;6.332;2023-06-04T06:15:02;101837.09;;;12.99;100.00
75640;BME280;64233;51.486;6.332;2023-06-04T06:17:27;101834.53;;;12.92;100.00
75640;BME280;64233;51.486;6.332;2023-06-04T06:19:53;101838.63;;;12.95;100.00
75640;BME280;64233;51.486;6.332;2023-06-04T06:22:19;101840.00;;;13.26;100.00
75640;BME280;64233;51.486;6.332;2023-06-04T06:24:44;101843.13;;;13.35;100.00
75640;BME280;64233;51.486;6.332;2023-06-04T06:27:10;101844.59;;;13.26;100.00
75640;BME280;64233;51.486;6.332;2023-06-04T06:29:36;101846.75;;;13.12;100.00
75640;BME280;64233;51.486;6.332;2023-06-04T06:32:02;101847.94;;;13.33;100.00
75640;BME280;64233;51.486;6.332;2023-06-04T06:34:27;101847.59;;;13.58;100.00
75640;BME280;64233;51.486;6.332;2023-06-04T06:36:53;101848.72;;;13.46;100.00
75640;BME280;64233;51.486;6.332;2023-06-04T06:39:18;101850.28;;;13.58;100.00
75640;BME280;64233;51.486;6.332;2023-06-04T06:41:44;101856.19;;;13.72;100.00
75640;BME280;64233;51.486;6.332;2023-06-04T06:44:10;101853.72;;;13.71;100.00
75640;BME280;64233;51.486;6.332;2023-06-04T06:46:35;101851.44;;;13.97;100.00
75640;BME280;64233;51.486;6.332;2023-06-04T06:49:00;101853.19;;;14.25;100.00
75640;BME280;64233;51.486;6.332;2023-06-04T06:51:25;101860.69;;;14.23;100.00
75640;BME280;64233;51.486;6.332;2023-06-04T06:53:51;101864.66;;;13.98;100.00
75640;BME280;64233;51.486;6.332;2023-06-04T06:56:16;101860.81;;;14.11;100.00
75640;BME280;64233;51.486;6.332;2023-06-04T06:58:43;101868.50;;;14.41;100.00
75640;BME280;64233;51.486;6.332;2023-06-04T07:01:08;101871.53;;;14.45;100.00
75640;BME280;64233;51.486;6.332;2023-06-04T07:03:34;101863.19;;;14.46;100.00
75640;BME280;64233;51.486;6.332;2023-06-04T07:05:59;101863.44;;;14.67;100.00
75640;BME280;64233;51.486;6.332;2023-06-04T07:08:25;101875.91;;;14.90;100.00
75640;BME280;64233;51.486;6.332;2023-06-04T07:10:50;101868.03;;;14.89;100.00
75640;BME280;64233;51.486;6.332;2023-06-04T07:13:16;101865.91;;;15.18;100.00
75640;BME280;64233;51.486;6.332;2023-06-04T07:15:41;101875.31;;;15.10;100.00
75640;BME280;64233;51.486;6.332;2023-06-04T07:18:06;101879.38;;;15.13;100.00
75640;BME280;64233;51.486;6.332;2023-06-04T07:20:32;101881.50;;;15.11;100.00
75640;BME280;64233;51.486;6.332;2023-06-04T07:22:57;101884.56;;;14.92;100.00
75640;BME280;64233;51.486;6.332;2023-06-04T07:25:22;101880.91;;;15.04;100.00
75640;BME280;64233;51.486;6.332;2023-06-04T07:27:49;101880.81;;;15.48;100.00
75640;BME280;64233;51.486;6.332;2023-06-04T07:30:15;101882.47;;;15.54;100.00
75640;BME280;64233;51.486;6.332;2023-06-04T07:32:41;101885.47;;;15.58;100.00
75640;BME280;64233;51.486;6.332;2023-06-04T07:35:06;101882.03;;;15.62;100.00
75640;BME280;64233;51.486;6.332;2023-06-04T07:37:32;101884.72;;;15.62;100.00
75640;BME280;64233;51.486;6.332;2023-06-04T07:39:57;101885.44;;;15.80;100.00
75640;BME280;64233;51.486;6.332;2023-06-04T07:42:22;101885.31;;;16.02;100.00
75640;BME280;64233;51.486;6.332;2023-06-04T07:44:48;101887.03;;;16.13;100.00
75640;BME280;64233;51.486;6.332;2023-06-04T07:47:13;101877.09;;;16.29;100.00
75640;BME280;64233;51.486;6.332;2023-06-04T07:49:38;101883.19;;;16.57;100.00
75640;BME280;64233;51.486;6.332;2023-06-04T07:52:04;101876.69;;;16.58;100.00
75640;BME280;64233;51.486;6.332;2023-06-04T07:54:29;101876.47;;;16.75;100.00
75640;BME280;64233;51.486;6.332;2023-06-04T07:56:54;101880.03;;;16.81;100.00
75640;BME280;64233;51.486;6.332;2023-06-04T07:59:24;101874.34;;;16.87;100.00
75640;BME280;64233;51.486;6.332;2023-06-04T08:01:50;101883.63;;;16.92;100.00
75640;BME280;64233;51.486;6.332;2023-06-04T08:04:16;101880.41;;;17.10;100.00
75640;BME280;64233;51.486;6.332;2023-06-04T08:06:42;101880.66;;;17.03;100.00
75640;BME280;64233;51.486;6.332;2023-06-04T08:09:08;101883.88;;;16.95;100.00
75640;BME280;64233;51.486;6.332;2023-06-04T08:11:35;101880.44;;;17.15;100.00
75640;BME280;64233;51.486;6.332;2023-06-04T08:14:01;101881.25;;;17.21;100.00
75640;BME280;64233;51.486;6.332;2023-06-04T08:16:26;101881.84;;;17.69;100.00
75640;BME280;64233;51.486;6.332;2023-06-04T08:18:51;101888.91;;;17.55;100.00
75640;BME280;64233;51.486;6.332;2023-06-04T08:21:25;101884.25;;;17.30;100.00
75640;BME280;64233;51.486;6.332;2023-06-04T08:23:50;101880.19;;;17.32;100.00
75640;BME280;64233;51.486;6.332;2023-06-04T08:26:16;101885.06;;;17.35;100.00
75640;BME280;64233;51.486;6.332;2023-06-04T08:28:41;101883.19;;;17.72;100.00
75640;BME280;64233;51.486;6.332;2023-06-04T08:31:06;101887.25;;;17.64;100.00
75640;BME280;64233;51.486;6.332;2023-06-04T08:33:31;101889.16;;;17.89;100.00
75640;BME280;64233;51.486;6.332;2023-06-04T08:35:57;101890.25;;;18.04;99.79
75640;BME280;64233;51.486;6.332;2023-06-04T08:38:22;101884.56;;;18.00;100.00
75640;BME280;64233;51.486;6.332;2023-06-04T08:40:52;101883.66;;;18.31;97.74
75640;BME280;64233;51.486;6.332;2023-06-04T08:43:18;101887.50;;;18.24;94.36
75640;BME280;64233;51.486;6.332;2023-06-04T08:45:49;101887.81;;;18.08;95.03
75640;BME280;64233;51.486;6.332;2023-06-04T08:48:15;101886.13;;;18.22;95.96
75640;BME280;64233;51.486;6.332;2023-06-04T08:50:44;101893.59;;;18.71;97.27
75640;BME280;64233;51.486;6.332;2023-06-04T08:53:13;101888.84;;;18.22;95.78
75640;BME280;64233;51.486;6.332;2023-06-04T08:55:40;101897.78;;;18.33;98.50
75640;BME280;64233;51.486;6.332;2023-06-04T08:58:07;101891.75;;;18.51;99.76
75640;BME280;64233;51.486;6.332;2023-06-04T09:00:35;101888.78;;;18.53;88.85
75640;BME280;64233;51.486;6.332;2023-06-04T09:03:01;101889.34;;;19.05;75.76
75640;BME280;64233;51.486;6.332;2023-06-04T09:05:28;101884.41;;;19.12;62.92
75640;BME280;64233;51.486;6.332;2023-06-04T09:07:55;101894.47;;;19.17;66.02
75640;BME280;64233;51.486;6.332;2023-06-04T09:10:25;101895.91;;;19.04;67.29
75640;BME280;64233;51.486;6.332;2023-06-04T09:12:51;101903.53;;;19.47;64.10
75640;BME280;64233;51.486;6.332;2023-06-04T09:15:17;101895.19;;;18.78;60.69
75640;BME280;64233;51.486;6.332;2023-06-04T09:17:42;101897.09;;;18.77;64.83
75640;BME280;64233;51.486;6.332;2023-06-04T09:20:18;101895.66;;;19.00;63.79
75640;BME280;64233;51.486;6.332;2023-06-04T09:22:43;101889.81;;;19.22;63.71
75640;BME280;64233;51.486;6.332;2023-06-04T09:25:19;101889.91;;;19.02;61.12
75640;BME280;64233;51.486;6.332;2023-06-04T09:27:44;101896.56;;;19.25;63.36
75640;BME280;64233;51.486;6.332;2023-06-04T09:30:10;101893.69;;;19.85;58.03
75640;BME280;64233;51.486;6.332;2023-06-04T09:32:35;101897.31;;;19.70;55.59
75640;BME280;64233;51.486;6.332;2023-06-04T09:35:17;101895.72;;;19.99;51.17
75640;BME280;64233;51.486;6.332;2023-06-04T09:37:54;101908.06;;;19.56;50.85
75640;BME280;64233;51.486;6.332;2023-06-04T09:40:21;101899.81;;;19.67;49.07
75640;BME280;64233;51.486;6.332;2023-06-04T09:42:47;101893.66;;;19.90;50.49
75640;BME280;64233;51.486;6.332;2023-06-04T09:45:34;101892.56;;;20.16;48.90
75640;BME280;64233;51.486;6.332;2023-06-04T09:48:01;101889.63;;;19.83;47.89
75640;BME280;64233;51.486;6.332;2023-06-04T09:50:30;101889.63;;;19.83;47.36
75640;BME280;64233;51.486;6.332;2023-06-04T09:52:57;101887.75;;;19.78;47.91
75640;BME280;64233;51.486;6.332;2023-06-04T09:55:22;101884.19;;;19.83;47.62
75640;BME280;64233;51.486;6.332;2023-06-04T09:57:51;101881.88;;;19.95;46.66
75640;BME280;64233;51.486;6.332;2023-06-04T10:00:18;101890.84;;;20.25;49.42
75640;BME280;64233;51.486;6.332;2023-06-04T10:02:46;101894.03;;;20.08;48.35
75640;BME280;64233;51.486;6.332;2023-06-04T10:05:13;101893.25;;;20.32;50.96
75640;BME280;64233;51.486;6.332;2023-06-04T10:07:42;101887.16;;;19.86;46.67
75640;BME280;64233;51.486;6.332;2023-06-04T10:10:11;101893.72;;;20.09;48.82
75640;BME280;64233;51.486;6.332;2023-06-04T10:12:39;101890.34;;;20.47;44.08
75640;BME280;64233;51.486;6.332;2023-06-04T10:15:10;101886.56;;;20.43;46.53
75640;BME280;64233;51.486;6.332;2023-06-04T10:17:37;101889.28;;;20.43;45.68
75640;BME280;64233;51.486;6.332;2023-06-04T10:20:04;101889.09;;;20.34;44.79
75640;BME280;64233;51.486;6.332;2023-06-04T10:22:31;101883.63;;;20.34;44.19
75640;BME280;64233;51.486;6.332;2023-06-04T10:25:00;101894.56;;;20.58;46.23
75640;BME280;64233;51.486;6.332;2023-06-04T10:27:25;101898.28;;;20.19;44.39
75640;BME280;64233;51.486;6.332;2023-06-04T10:29:51;101892.13;;;20.33;44.63
75640;BME280;64233;51.486;6.332;2023-06-04T10:32:18;101889.34;;;20.38;45.79
75640;BME280;64233;51.486;6.332;2023-06-04T10:34:46;101892.03;;;20.67;45.00
75640;BME280;64233;51.486;6.332;2023-06-04T10:37:25;101889.31;;;20.67;43.36
75640;BME280;64233;51.486;6.332;2023-06-04T10:39:52;101881.94;;;21.06;44.03
75640;BME280;64233;51.486;6.332;2023-06-04T10:42:18;101877.44;;;21.15;44.64
75640;BME280;64233;51.486;6.332;2023-06-04T10:44:49;101882.22;;;20.85;44.58
75640;BME280;64233;51.486;6.332;2023-06-04T10:47:21;101883.16;;;20.51;44.28
75640;BME280;64233;51.486;6.332;2023-06-04T10:49:47;101880.81;;;20.44;43.51
75640;BME280;64233;51.486;6.332;2023-06-04T10:52:13;101880.38;;;20.80;42.89
75640;BME280;64233;51.486;6.332;2023-06-04T10:54:38;101877.59;;;20.86;44.40
75640;BME280;64233;51.486;6.332;2023-06-04T10:57:10;101874.03;;;20.85;44.87
75640;BME280;64233;51.486;6.332;2023-06-04T10:59:36;101877.38;;;21.20;42.96
75640;BME280;64233;51.486;6.332;2023-06-04T11:02:05;101876.09;;;20.74;42.65
75640;BME280;64233;51.486;6.332;2023-06-04T11:04:31;101882.59;;;20.97;44.26
75640;BME280;64233;51.486;6.332;2023-06-04T11:09:27;101875.84;;;21.14;42.44
75640;BME280;64233;51.486;6.332;2023-06-04T11:11:59;101874.81;;;21.43;41.77
75640;BME280;64233;51.486;6.332;2023-06-04T11:14:24;101867.94;;;21.12;42.56
75640;BME280;64233;51.486;6.332;2023-06-04T11:16:50;101864.97;;;21.28;42.79
75640;BME280;64233;51.486;6.332;2023-06-04T11:19:15;101862.69;;;21.49;44.84
75640;BME280;64233;51.486;6.332;2023-06-04T11:21:40;101863.28;;;22.12;44.75
75640;BME280;64233;51.486;6.332;2023-06-04T11:24:06;101866.03;;;21.46;41.84
75640;BME280;64233;51.486;6.332;2023-06-04T11:26:36;101850.50;;;21.27;42.71
75640;BME280;64233;51.486;6.332;2023-06-04T11:29:07;101853.41;;;21.50;44.83
75640;BME280;64233;51.486;6.332;2023-06-04T11:31:47;101855.94;;;21.79;44.40
75640;BME280;64233;51.486;6.332;2023-06-04T11:34:29;101861.25;;;21.57;42.20
75640;BME280;64233;51.486;6.332;2023-06-04T11:36:55;101857.13;;;21.40;42.30
75640;BME280;64233;51.486;6.332;2023-06-04T11:39:21;101852.06;;;21.47;44.20
75640;BME280;64233;51.486;6.332;2023-06-04T11:41:47;101849.44;;;21.42;42.41
75640;BME280;64233;51.486;6.332;2023-06-04T11:44:13;101849.69;;;21.08;42.70
75640;BME280;64233;51.486;6.332;2023-06-04T11:46:42;101848.81;;;21.64;43.96
75640;BME280;64233;51.486;6.332;2023-06-04T11:49:17;101849.28;;;22.13;42.54
75640;BME280;64233;51.486;6.332;2023-06-04T11:51:47;101849.53;;;21.37;40.15
75640;BME280;64233;51.486;6.332;2023-06-04T11:54:13;101851.75;;;21.35;43.34
75640;BME280;64233;51.486;6.332;2023-06-04T11:56:39;101848.13;;;21.40;40.94
75640;BME280;64233;51.486;6.332;2023-06-04T11:59:04;101847.38;;;21.53;42.08
75640;BME280;64233;51.486;6.332;2023-06-04T12:01:31;101844.03;;;21.89;43.64
75640;BME280;64233;51.486;6.332;2023-06-04T12:03:57;101844.59;;;21.20;42.58
75640;BME280;64233;51.486;6.332;2023-06-04T12:06:23;101837.84;;;21.83;45.38
75640;BME280;64233;51.486;6.332;2023-06-04T12:08:50;101841.22;;;22.36;42.70
75640;BME280;64233;51.486;6.332;2023-06-04T12:11:26;101849.81;;;22.57;42.22
75640;BME280;64233;51.486;6.332;2023-06-04T12:13:54;101838.22;;;22.74;42.00
75640;BME280;64233;51.486;6.332;2023-06-04T12:16:19;101838.81;;;21.74;41.01
75640;BME280;64233;51.486;6.332;2023-06-04T12:18:44;101846.50;;;21.72;41.35
75640;BME280;64233;51.486;6.332;2023-06-04T12:21:36;101834.81;;;21.99;44.26
75640;BME280;64233;51.486;6.332;2023-06-04T12:24:09;101836.63;;;21.90;41.46
75640;BME280;64233;51.486;6.332;2023-06-04T12:26:36;101826.66;;;21.66;40.28
75640;BME280;64233;51.486;6.332;2023-06-04T12:29:10;101825.06;;;21.65;44.06
75640;BME280;64233;51.486;6.332;2023-06-04T12:31:37;101824.34;;;21.87;42.30
75640;BME280;64233;51.486;6.332;2023-06-04T12:34:03;101829.34;;;21.99;40.62
75640;BME280;64233;51.486;6.332;2023-06-04T12:36:28;101828.34;;;21.95;41.46
75640;BME280;64233;51.486;6.332;2023-06-04T12:38:58;101822.94;;;21.76;41.26
75640;BME280;64233;51.486;6.332;2023-06-04T12:41:25;101830.97;;;21.86;41.53
75640;BME280;64233;51.486;6.332;2023-06-04T12:43:51;101821.03;;;21.76;41.33
75640;BME280;64233;51.486;6.332;2023-06-04T12:46:16;101829.72;;;21.45;41.08
75640;BME280;64233;51.486;6.332;2023-06-04T12:48:41;101824.38;;;22.15;43.38